sensor_id;sensor_type;location;lat;lon;timestamp;temperature;humidity
1415;DHT22;702;49.466;11.086;2023-10-19T00:02:06;8.60;94.50
1415;DHT22;702;49.466;11.086;2023-10-19T00:04:33;8.60;94.60
1415;DHT22;702;49.466;11.086;2023-10-19T00:07:02;8.60;94.60
1415;DHT22;702;49.466;11.086;2023-10-19T00:09:31;8.60;94.40
1415;DHT22;702;49.466;11.086;2023-10-19T00:12:04;8.60;94.20
1415;DHT22;702;49.466;11.086;2023-10-19T00:14:36;8.50;94.60
1415;DHT22;702;49.466;11.086;2023-10-19T00:17:02;8.50;95.10
1415;DHT22;702;49.466;11.086;2023-10-19T00:19:32;8.50;95.40
1415;DHT22;702;49.466;11.086;2023-10-19T00:22:05;8.60;95.40
1415;DHT22;702;49.466;11.086;2023-10-19T00:24:41;8.60;95.20
1415;DHT22;702;49.466;11.086;2023-10-19T00:27:08;8.60;95.20
1415;DHT22;702;49.466;11.086;2023-10-19T00:29:43;8.60;95.00
1415;DHT22;702;49.466;11.086;2023-10-19T00:32:15;8.60;95.30
1415;DHT22;702;49.466;11.086;2023-10-19T00:34:45;8.60;95.10
1415;DHT22;702;49.466;11.086;2023-10-19T00:37:18;8.60;95.10
1415;DHT22;702;49.466;11.086;2023-10-19T00:39:51;8.60;95.10
1415;DHT22;702;49.466;11.086;2023-10-19T00:42:21;8.60;95.30
1415;DHT22;702;49.466;11.086;2023-10-19T00:44:56;8.60;95.00
1415;DHT22;702;49.466;11.086;2023-10-19T00:47:30;8.60;95.20
1415;DHT22;702;49.466;11.086;2023-10-19T00:50:06;8.60;95.10
1415;DHT22;702;49.466;11.086;2023-10-19T00:52:40;8.60;94.90
1415;DHT22;702;49.466;11.086;2023-10-19T00:55:13;8.60;95.20
1415;DHT22;702;49.466;11.086;2023-10-19T00:57:42;8.60;95.60
1415;DHT22;702;49.466;11.086;2023-10-19T01:00:16;8.70;95.00
1415;DHT22;702;49.466;11.086;2023-10-19T01:02:57;8.70;94.90
1415;DHT22;702;49.466;11.086;2023-10-19T01:05:30;8.70;94.60
1415;DHT22;702;49.466;11.086;2023-10-19T01:08:01;8.70;95.20
1415;DHT22;702;49.466;11.086;2023-10-19T01:10:40;8.70;94.80
1415;DHT22;702;49.466;11.086;2023-10-19T01:13:11;8.70;95.30
1415;DHT22;702;49.466;11.086;2023-10-19T01:15:39;8.70;95.40
1415;DHT22;702;49.466;11.086;2023-10-19T01:18:08;8.70;96.20
1415;DHT22;702;49.466;11.086;2023-10-19T01:20:39;8.60;95.70
1415;DHT22;702;49.466;11.086;2023-10-19T01:23:18;8.60;96.20
1415;DHT22;702;49.466;11.086;2023-10-19T01:25:52;8.60;96.70
1415;DHT22;702;49.466;11.086;2023-10-19T01:28:35;8.60;97.20
1415;DHT22;702;49.466;11.086;2023-10-19T01:31:11;8.60;97.40
1415;DHT22;702;49.466;11.086;2023-10-19T01:33:43;8.70;96.70
1415;DHT22;702;49.466;11.086;2023-10-19T01:36:11;8.60;96.80
1415;DHT22;702;49.466;11.086;2023-10-19T01:38:52;8.50;97.50
1415;DHT22;702;49.466;11.086;2023-10-19T01:41:22;8.60;98.60
1415;DHT22;702;49.466;11.086;2023-10-19T01:43:52;8.60;98.60
1415;DHT22;702;49.466;11.086;2023-10-19T01:46:21;8.60;98.80
1415;DHT22;702;49.466;11.086;2023-10-19T01:48:49;8.60;98.40
1415;DHT22;702;49.466;11.086;2023-10-19T01:51:20;8.70;98.20
1415;DHT22;702;49.466;11.086;2023-10-19T01:53:49;8.60;98.00
1415;DHT22;702;49.466;11.086;2023-10-19T01:56:18;8.60;98.20
1415;DHT22;702;49.466;11.086;2023-10-19T01:58:46;8.60;98.20
1415;DHT22;702;49.466;11.086;2023-10-19T02:01:14;8.60;98.60
1415;DHT22;702;49.466;11.086;2023-10-19T02:03:47;8.60;98.30
1415;DHT22;702;49.466;11.086;2023-10-19T02:06:19;8.60;98.30
1415;DHT22;702;49.466;11.086;2023-10-19T02:08:48;8.60;98.40
1415;DHT22;702;49.466;11.086;2023-10-19T02:11:21;8.60;97.80
1415;DHT22;702;49.466;11.086;2023-10-19T02:13:49;8.60;98.40
1415;DHT22;702;49.466;11.086;2023-10-19T02:16:17;8.60;98.40
1415;DHT22;702;49.466;11.086;2023-10-19T02:18:48;8.60;97.90
1415;DHT22;702;49.466;11.086;2023-10-19T02:21:16;8.60;97.90
1415;DHT22;702;49.466;11.086;2023-10-19T02:23:47;8.60;98.00
1415;DHT22;702;49.466;11.086;2023-10-19T02:26:17;8.60;97.30
1415;DHT22;702;49.466;11.086;2023-10-19T02:28:47;8.70;97.10
1415;DHT22;702;49.466;11.086;2023-10-19T02:31:16;8.70;96.60
1415;DHT22;702;49.466;11.086;2023-10-19T02:33:47;8.70;96.50
1415;DHT22;702;49.466;11.086;2023-10-19T02:36:17;8.80;95.80
1415;DHT22;702;49.466;11.086;2023-10-19T02:38:46;8.90;95.70
1415;DHT22;702;49.466;11.086;2023-10-19T02:41:17;8.80;95.30
1415;DHT22;702;49.466;11.086;2023-10-19T02:43:44;8.80;95.00
1415;DHT22;702;49.466;11.086;2023-10-19T02:46:17;8.90;95.30
1415;DHT22;702;49.466;11.086;2023-10-19T02:48:44;8.90;95.20
1415;DHT22;702;49.466;11.086;2023-10-19T02:51:11;8.90;95.10
1415;DHT22;702;49.466;11.086;2023-10-19T02:53:39;8.90;95.00
1415;DHT22;702;49.466;11.086;2023-10-19T02:56:10;9.00;95.60
1415;DHT22;702;49.466;11.086;2023-10-19T02:58:41;8.90;95.50
1415;DHT22;702;49.466;11.086;2023-10-19T03:01:14;9.00;96.00
1415;DHT22;702;49.466;11.086;2023-10-19T03:03:44;9.00;94.50
1415;DHT22;702;49.466;11.086;2023-10-19T03:06:12;9.10;94.20
1415;DHT22;702;49.466;11.086;2023-10-19T03:08:39;9.00;94.30
1415;DHT22;702;49.466;11.086;2023-10-19T03:11:05;9.00;95.50
1415;DHT22;702;49.466;11.086;2023-10-19T03:13:34;9.00;95.70
1415;DHT22;702;49.466;11.086;2023-10-19T03:16:02;9.00;95.80
1415;DHT22;702;49.466;11.086;2023-10-19T03:18:33;9.00;95.20
1415;DHT22;702;49.466;11.086;2023-10-19T03:21:02;9.00;95.50
1415;DHT22;702;49.466;11.086;2023-10-19T03:23:29;8.90;95.60
1415;DHT22;702;49.466;11.086;2023-10-19T03:26:00;9.00;95.60
1415;DHT22;702;49.466;11.086;2023-10-19T03:28:49;8.90;95.70
1415;DHT22;702;49.466;11.086;2023-10-19T03:31:21;9.00;95.80
1415;DHT22;702;49.466;11.086;2023-10-19T03:33:51;8.90;95.90
1415;DHT22;702;49.466;11.086;2023-10-19T03:36:23;8.90;96.70
1415;DHT22;702;49.466;11.086;2023-10-19T03:38:51;8.90;96.80
1415;DHT22;702;49.466;11.086;2023-10-19T03:41:19;8.90;96.90
1415;DHT22;702;49.466;11.086;2023-10-19T03:43:51;8.90;96.90
1415;DHT22;702;49.466;11.086;2023-10-19T03:46:20;8.90;97.10
1415;DHT22;702;49.466;11.086;2023-10-19T03:48:54;8.90;97.10
1415;DHT22;702;49.466;11.086;2023-10-19T03:51:26;8.80;96.80
1415;DHT22;702;49.466;11.086;2023-10-19T03:54:05;8.80;97.00
1415;DHT22;702;49.466;11.086;2023-10-19T03:56:49;8.80;97.10
1415;DHT22;702;49.466;11.086;2023-10-19T03:59:18;8.80;97.20
1415;DHT22;702;49.466;11.086;2023-10-19T04:01:46;8.90;97.70
1415;DHT22;702;49.466;11.086;2023-10-19T04:04:13;8.90;97.40
1415;DHT22;702;49.466;11.086;2023-10-19T04:06:45;9.00;97.00
1415;DHT22;702;49.466;11.086;2023-10-19T04:09:15;8.90;96.20
1415;DHT22;702;49.466;11.086;2023-10-19T04:11:44;8.90;96.20
1415;DHT22;702;49.466;11.086;2023-10-19T04:14:18;8.80;97.20
1415;DHT22;702;49.466;11.086;2023-10-19T04:16:47;8.90;97.30
1415;DHT22;702;49.466;11.086;2023-10-19T04:19:14;8.90;96.80
1415;DHT22;702;49.466;11.086;2023-10-19T04:21:42;8.90;96.50
1415;DHT22;702;49.466;11.086;2023-10-19T04:24:13;8.80;96.10
1415;DHT22;702;49.466;11.086;2023-10-19T04:26:43;8.80;96.90
1415;DHT22;702;49.466;11.086;2023-10-19T04:29:10;8.80;96.90
1415;DHT22;702;49.466;11.086;2023-10-19T04:31:39;8.90;97.90
1415;DHT22;702;49.466;11.086;2023-10-19T04:34:15;8.90;96.90
1415;DHT22;702;49.466;11.086;2023-10-19T04:36:46;8.80;97.30
1415;DHT22;702;49.466;11.086;2023-10-19T04:39:15;8.80;98.10
1415;DHT22;702;49.466;11.086;2023-10-19T04:41:45;8.70;97.80
1415;DHT22;702;49.466;11.086;2023-10-19T04:44:14;8.80;98.70
1415;DHT22;702;49.466;11.086;2023-10-19T04:46:42;8.70;98.50
1415;DHT22;702;49.466;11.086;2023-10-19T04:49:09;8.70;99.20
1415;DHT22;702;49.466;11.086;2023-10-19T04:51:36;8.70;99.00
1415;DHT22;702;49.466;11.086;2023-10-19T04:54:04;8.70;99.90
1415;DHT22;702;49.466;11.086;2023-10-19T04:56:36;8.80;99.90
1415;DHT22;702;49.466;11.086;2023-10-19T04:59:03;8.80;99.90
1415;DHT22;702;49.466;11.086;2023-10-19T05:01:31;8.90;99.90
1415;DHT22;702;49.466;11.086;2023-10-19T05:04:00;8.90;99.20
1415;DHT22;702;49.466;11.086;2023-10-19T05:06:27;8.90;97.90
1415;DHT22;702;49.466;11.086;2023-10-19T05:08:54;8.90;97.60
1415;DHT22;702;49.466;11.086;2023-10-19T05:11:23;9.00;97.90
1415;DHT22;702;49.466;11.086;2023-10-19T05:13:51;9.00;97.20
1415;DHT22;702;49.466;11.086;2023-10-19T05:16:19;9.00;97.80
1415;DHT22;702;49.466;11.086;2023-10-19T05:18:46;9.00;98.00
1415;DHT22;702;49.466;11.086;2023-10-19T05:21:13;9.10;98.10
1415;DHT22;702;49.466;11.086;2023-10-19T05:23:41;9.00;98.00
1415;DHT22;702;49.466;11.086;2023-10-19T05:26:08;8.90;99.00
1415;DHT22;702;49.466;11.086;2023-10-19T05:28:35;8.90;99.90
1415;DHT22;702;49.466;11.086;2023-10-19T05:31:04;9.00;99.90
1415;DHT22;702;49.466;11.086;2023-10-19T05:33:31;9.10;98.80
1415;DHT22;702;49.466;11.086;2023-10-19T05:35:59;8.90;99.40
1415;DHT22;702;49.466;11.086;2023-10-19T05:38:26;9.00;99.90
1415;DHT22;702;49.466;11.086;2023-10-19T05:40:56;9.00;99.80
1415;DHT22;702;49.466;11.086;2023-10-19T05:43:24;9.00;99.40
1415;DHT22;702;49.466;11.086;2023-10-19T05:45:51;9.00;99.90
1415;DHT22;702;49.466;11.086;2023-10-19T05:48:21;9.00;99.70
1415;DHT22;702;49.466;11.086;2023-10-19T05:50:48;9.00;99.90
1415;DHT22;702;49.466;11.086;2023-10-19T05:53:16;9.10;99.90
1415;DHT22;702;49.466;11.086;2023-10-19T05:55:44;9.20;99.90
1415;DHT22;702;49.466;11.086;2023-10-19T05:58:11;9.30;99.20
1415;DHT22;702;49.466;11.086;2023-10-19T06:00:39;9.50;98.10
1415;DHT22;702;49.466;11.086;2023-10-19T06:03:06;9.40;97.10
1415;DHT22;702;49.466;11.086;2023-10-19T06:05:34;9.50;97.10
1415;DHT22;702;49.466;11.086;2023-10-19T06:08:03;9.50;95.80
1415;DHT22;702;49.466;11.086;2023-10-19T06:10:30;9.40;95.30
1415;DHT22;702;49.466;11.086;2023-10-19T06:12:58;9.40;95.60
1415;DHT22;702;49.466;11.086;2023-10-19T06:15:25;9.30;95.50
1415;DHT22;702;49.466;11.086;2023-10-19T06:17:54;9.30;95.90
1415;DHT22;702;49.466;11.086;2023-10-19T06:20:21;9.20;96.20
1415;DHT22;702;49.466;11.086;2023-10-19T06:22:54;9.30;95.70
1415;DHT22;702;49.466;11.086;2023-10-19T06:25:23;9.20;96.10
1415;DHT22;702;49.466;11.086;2023-10-19T06:27:52;9.30;96.00
1415;DHT22;702;49.466;11.086;2023-10-19T06:30:23;9.20;95.40
1415;DHT22;702;49.466;11.086;2023-10-19T06:32:53;9.20;95.70
1415;DHT22;702;49.466;11.086;2023-10-19T06:35:22;9.20;95.90
1415;DHT22;702;49.466;11.086;2023-10-19T06:37:50;9.20;96.10
1415;DHT22;702;49.466;11.086;2023-10-19T06:40:18;9.30;95.80
1415;DHT22;702;49.466;11.086;2023-10-19T06:42:46;9.40;95.10
1415;DHT22;702;49.466;11.086;2023-10-19T06:45:14;9.40;94.60
1415;DHT22;702;49.466;11.086;2023-10-19T06:47:42;9.60;94.10
1415;DHT22;702;49.466;11.086;2023-10-19T06:50:11;9.70;93.20
1415;DHT22;702;49.466;11.086;2023-10-19T06:52:41;9.70;93.10
1415;DHT22;702;49.466;11.086;2023-10-19T06:55:10;9.80;93.40
1415;DHT22;702;49.466;11.086;2023-10-19T06:57:42;9.90;93.10
1415;DHT22;702;49.466;11.086;2023-10-19T07:00:11;10.00;92.10
1415;DHT22;702;49.466;11.086;2023-10-19T07:02:42;10.20;91.30
1415;DHT22;702;49.466;11.086;2023-10-19T07:05:12;10.20;91.20
1415;DHT22;702;49.466;11.086;2023-10-19T07:07:45;10.30;90.80
1415;DHT22;702;49.466;11.086;2023-10-19T07:10:13;10.40;90.80
1415;DHT22;702;49.466;11.086;2023-10-19T07:12:44;10.50;90.40
1415;DHT22;702;49.466;11.086;2023-10-19T07:15:14;10.60;90.30
1415;DHT22;702;49.466;11.086;2023-10-19T07:17:45;10.70;89.20
1415;DHT22;702;49.466;11.086;2023-10-19T07:20:15;10.50;89.50
1415;DHT22;702;49.466;11.086;2023-10-19T07:22:51;10.60;89.50
1415;DHT22;702;49.466;11.086;2023-10-19T07:25:18;10.70;90.10
1415;DHT22;702;49.466;11.086;2023-10-19T07:27:48;11.00;89.30
1415;DHT22;702;49.466;11.086;2023-10-19T07:30:16;11.30;88.00
1415;DHT22;702;49.466;11.086;2023-10-19T07:32:48;11.50;87.30
1415;DHT22;702;49.466;11.086;2023-10-19T07:35:20;11.60;86.00
1415;DHT22;702;49.466;11.086;2023-10-19T07:37:47;11.50;86.50
1415;DHT22;702;49.466;11.086;2023-10-19T07:40:16;11.30;86.30
1415;DHT22;702;49.466;11.086;2023-10-19T07:42:44;11.40;86.80
1415;DHT22;702;49.466;11.086;2023-10-19T07:45:13;11.20;86.70
1415;DHT22;702;49.466;11.086;2023-10-19T07:47:41;11.20;86.60
1415;DHT22;702;49.466;11.086;2023-10-19T07:50:09;11.10;86.70
1415;DHT22;702;49.466;11.086;2023-10-19T07:52:41;11.20;87.10
1415;DHT22;702;49.466;11.086;2023-10-19T07:55:09;11.40;86.70
1415;DHT22;702;49.466;11.086;2023-10-19T07:57:37;11.30;86.50
1415;DHT22;702;49.466;11.086;2023-10-19T08:00:07;11.30;86.90
1415;DHT22;702;49.466;11.086;2023-10-19T08:02:37;11.40;86.70
1415;DHT22;702;49.466;11.086;2023-10-19T08:05:07;11.60;86.90
1415;DHT22;702;49.466;11.086;2023-10-19T08:07:37;11.70;86.50
1415;DHT22;702;49.466;11.086;2023-10-19T08:10:06;12.00;86.10
1415;DHT22;702;49.466;11.086;2023-10-19T08:12:35;12.30;85.50
1415;DHT22;702;49.466;11.086;2023-10-19T08:15:03;12.40;84.10
1415;DHT22;702;49.466;11.086;2023-10-19T08:17:32;12.30;84.10
1415;DHT22;702;49.466;11.086;2023-10-19T08:20:01;12.10;84.30
1415;DHT22;702;49.466;11.086;2023-10-19T08:22:30;12.00;85.10
1415;DHT22;702;49.466;11.086;2023-10-19T08:24:58;11.90;85.40
1415;DHT22;702;49.466;11.086;2023-10-19T08:27:26;12.10;85.70
1415;DHT22;702;49.466;11.086;2023-10-19T08:29:55;12.00;85.40
1415;DHT22;702;49.466;11.086;2023-10-19T08:32:22;12.10;85.40
1415;DHT22;702;49.466;11.086;2023-10-19T08:34:49;12.00;85.60
1415;DHT22;702;49.466;11.086;2023-10-19T08:37:18;12.00;85.40
1415;DHT22;702;49.466;11.086;2023-10-19T08:39:45;12.10;85.30
1415;DHT22;702;49.466;11.086;2023-10-19T08:42:14;12.40;86.00
1415;DHT22;702;49.466;11.086;2023-10-19T08:44:42;12.70;84.90
1415;DHT22;702;49.466;11.086;2023-10-19T08:47:09;12.70;84.00
1415;DHT22;702;49.466;11.086;2023-10-19T08:49:38;12.90;84.50
1415;DHT22;702;49.466;11.086;2023-10-19T08:52:07;13.20;83.50
1415;DHT22;702;49.466;11.086;2023-10-19T08:54:36;13.50;82.70
1415;DHT22;702;49.466;11.086;2023-10-19T08:57:04;13.40;82.70
1415;DHT22;702;49.466;11.086;2023-10-19T08:59:31;13.40;82.70
1415;DHT22;702;49.466;11.086;2023-10-19T09:02:02;13.40;82.90
1415;DHT22;702;49.466;11.086;2023-10-19T09:04:32;13.50;82.80
1415;DHT22;702;49.466;11.086;2023-10-19T09:06:59;13.60;82.60
1415;DHT22;702;49.466;11.086;2023-10-19T09:09:32;13.60;82.60
1415;DHT22;702;49.466;11.086;2023-10-19T09:12:01;13.10;83.30
1415;DHT22;702;49.466;11.086;2023-10-19T09:14:31;13.20;83.50
1415;DHT22;702;49.466;11.086;2023-10-19T09:17:01;13.50;83.60
1415;DHT22;702;49.466;11.086;2023-10-19T09:19:37;13.70;83.50
1415;DHT22;702;49.466;11.086;2023-10-19T09:22:05;13.90;82.90
1415;DHT22;702;49.466;11.086;2023-10-19T09:24:43;13.80;83.00
1415;DHT22;702;49.466;11.086;2023-10-19T09:27:13;14.10;82.50
1415;DHT22;702;49.466;11.086;2023-10-19T09:29:40;14.20;82.60
1415;DHT22;702;49.466;11.086;2023-10-19T09:32:08;14.20;82.20
1415;DHT22;702;49.466;11.086;2023-10-19T09:34:36;14.30;82.60
1415;DHT22;702;49.466;11.086;2023-10-19T09:37:03;14.40;81.90
1415;DHT22;702;49.466;11.086;2023-10-19T09:39:31;14.50;82.20
1415;DHT22;702;49.466;11.086;2023-10-19T09:42:02;14.60;81.50
1415;DHT22;702;49.466;11.086;2023-10-19T09:44:39;14.50;81.20
1415;DHT22;702;49.466;11.086;2023-10-19T09:47:10;14.70;80.80
1415;DHT22;702;49.466;11.086;2023-10-19T09:49:40;14.80;80.70
1415;DHT22;702;49.466;11.086;2023-10-19T09:52:10;15.00;80.80
1415;DHT22;702;49.466;11.086;2023-10-19T09:54:48;14.90;80.20
1415;DHT22;702;49.466;11.086;2023-10-19T09:57:30;14.80;79.80
1415;DHT22;702;49.466;11.086;2023-10-19T10:00:06;14.70;80.30
1415;DHT22;702;49.466;11.086;2023-10-19T10:02:39;14.70;80.40
1415;DHT22;702;49.466;11.086;2023-10-19T10:05:45;14.90;80.40
1415;DHT22;702;49.466;11.086;2023-10-19T10:08:32;15.10;79.90
1415;DHT22;702;49.466;11.086;2023-10-19T10:11:16;15.00;80.00
1415;DHT22;702;49.466;11.086;2023-10-19T10:13:48;14.90;79.70
1415;DHT22;702;49.466;11.086;2023-10-19T10:16:22;14.80;80.40
1415;DHT22;702;49.466;11.086;2023-10-19T10:18:54;15.00;80.30
1415;DHT22;702;49.466;11.086;2023-10-19T10:21:26;14.80;80.20
1415;DHT22;702;49.466;11.086;2023-10-19T10:23:54;14.60;80.40
1415;DHT22;702;49.466;11.086;2023-10-19T10:26:24;14.50;80.70
1415;DHT22;702;49.466;11.086;2023-10-19T10:29:09;14.60;81.00
1415;DHT22;702;49.466;11.086;2023-10-19T10:31:44;14.60;81.00
1415;DHT22;702;49.466;11.086;2023-10-19T10:34:42;14.70;81.00
1415;DHT22;702;49.466;11.086;2023-10-19T10:37:10;15.00;80.70
1415;DHT22;702;49.466;11.086;2023-10-19T10:39:40;15.10;80.40
1415;DHT22;702;49.466;11.086;2023-10-19T10:42:09;15.00;80.50
1415;DHT22;702;49.466;11.086;2023-10-19T10:44:38;14.90;80.60
1415;DHT22;702;49.466;11.086;2023-10-19T10:47:12;14.80;80.60
1415;DHT22;702;49.466;11.086;2023-10-19T10:49:50;15.00;80.60
1415;DHT22;702;49.466;11.086;2023-10-19T10:52:29;15.10;80.60
1415;DHT22;702;49.466;11.086;2023-10-19T10:54:58;15.30;80.30
1415;DHT22;702;49.466;11.086;2023-10-19T10:57:33;15.50;80.10
1415;DHT22;702;49.466;11.086;2023-10-19T11:00:02;15.80;80.10
1415;DHT22;702;49.466;11.086;2023-10-19T11:02:32;16.00;79.70
1415;DHT22;702;49.466;11.086;2023-10-19T11:04:59;16.10;79.40
1415;DHT22;702;49.466;11.086;2023-10-19T11:07:26;15.80;79.40
1415;DHT22;702;49.466;11.086;2023-10-19T11:09:53;15.80;79.30
1415;DHT22;702;49.466;11.086;2023-10-19T11:12:21;15.50;79.40
1415;DHT22;702;49.466;11.086;2023-10-19T11:14:54;15.40;79.80
1415;DHT22;702;49.466;11.086;2023-10-19T11:17:23;15.50;79.80
1415;DHT22;702;49.466;11.086;2023-10-19T11:19:57;15.60;79.70
1415;DHT22;702;49.466;11.086;2023-10-19T11:22:25;15.80;79.50
1415;DHT22;702;49.466;11.086;2023-10-19T11:24:54;15.70;79.30
1415;DHT22;702;49.466;11.086;2023-10-19T11:27:25;15.60;79.50
1415;DHT22;702;49.466;11.086;2023-10-19T11:29:54;15.50;79.90
1415;DHT22;702;49.466;11.086;2023-10-19T11:32:22;15.40;79.90
1415;DHT22;702;49.466;11.086;2023-10-19T11:34:51;15.50;80.00
1415;DHT22;702;49.466;11.086;2023-10-19T11:37:20;15.50;80.20
1415;DHT22;702;49.466;11.086;2023-10-19T11:39:47;15.60;79.90
1415;DHT22;702;49.466;11.086;2023-10-19T11:42:16;15.50;80.00
1415;DHT22;702;49.466;11.086;2023-10-19T11:44:44;15.50;80.20
1415;DHT22;702;49.466;11.086;2023-10-19T11:47:12;15.70;80.00
1415;DHT22;702;49.466;11.086;2023-10-19T11:49:40;16.20;80.00
1415;DHT22;702;49.466;11.086;2023-10-19T11:52:07;16.30;79.30
1415;DHT22;702;49.466;11.086;2023-10-19T11:54:36;16.50;79.20
1415;DHT22;702;49.466;11.086;2023-10-19T11:57:04;16.40;79.20
1415;DHT22;702;49.466;11.086;2023-10-19T11:59:31;16.30;79.10
1415;DHT22;702;49.466;11.086;2023-10-19T12:01:58;16.30;79.50
1415;DHT22;702;49.466;11.086;2023-10-19T12:04:26;16.30;79.30
1415;DHT22;702;49.466;11.086;2023-10-19T12:06:53;16.10;79.50
1415;DHT22;702;49.466;11.086;2023-10-19T12:09:21;16.30;79.60
1415;DHT22;702;49.466;11.086;2023-10-19T12:11:52;16.30;79.70
1415;DHT22;702;49.466;11.086;2023-10-19T12:14:20;16.50;79.60
1415;DHT22;702;49.466;11.086;2023-10-19T12:16:48;16.40;79.50
1415;DHT22;702;49.466;11.086;2023-10-19T12:19:16;16.40;79.70
1415;DHT22;702;49.466;11.086;2023-10-19T12:21:44;16.70;79.40
1415;DHT22;702;49.466;11.086;2023-10-19T12:24:11;16.80;79.20
1415;DHT22;702;49.466;11.086;2023-10-19T12:26:41;16.80;79.20
1415;DHT22;702;49.466;11.086;2023-10-19T12:29:09;16.70;78.90
1415;DHT22;702;49.466;11.086;2023-10-19T12:31:36;16.70;78.80
1415;DHT22;702;49.466;11.086;2023-10-19T12:34:05;16.60;79.20
1415;DHT22;702;49.466;11.086;2023-10-19T12:36:34;16.70;79.60
1415;DHT22;702;49.466;11.086;2023-10-19T12:39:02;17.00;79.10
1415;DHT22;702;49.466;11.086;2023-10-19T12:41:32;17.40;78.70
1415;DHT22;702;49.466;11.086;2023-10-19T12:44:00;17.30;78.50
1415;DHT22;702;49.466;11.086;2023-10-19T12:46:30;17.50;78.10
1415;DHT22;702;49.466;11.086;2023-10-19T12:48:57;17.60;78.10
1415;DHT22;702;49.466;11.086;2023-10-19T12:51:24;17.40;77.90
1415;DHT22;702;49.466;11.086;2023-10-19T12:53:53;16.90;78.40
1415;DHT22;702;49.466;11.086;2023-10-19T12:56:21;16.80;78.80
1415;DHT22;702;49.466;11.086;2023-10-19T12:58:50;17.00;78.80
1415;DHT22;702;49.466;11.086;2023-10-19T13:01:17;17.10;78.70
1415;DHT22;702;49.466;11.086;2023-10-19T13:03:47;17.20;78.40
1415;DHT22;702;49.466;11.086;2023-10-19T13:06:15;17.40;77.90
1415;DHT22;702;49.466;11.086;2023-10-19T13:08:43;17.50;77.80
1415;DHT22;702;49.466;11.086;2023-10-19T13:11:11;17.30;78.10
1415;DHT22;702;49.466;11.086;2023-10-19T13:13:39;17.30;78.20
1415;DHT22;702;49.466;11.086;2023-10-19T13:16:07;17.30;78.40
1415;DHT22;702;49.466;11.086;2023-10-19T13:18:35;17.00;78.20
1415;DHT22;702;49.466;11.086;2023-10-19T13:21:04;16.70;78.70
1415;DHT22;702;49.466;11.086;2023-10-19T13:23:31;16.50;79.40
1415;DHT22;702;49.466;11.086;2023-10-19T13:26:00;16.40;79.50
1415;DHT22;702;49.466;11.086;2023-10-19T13:28:42;16.30;80.00
1415;DHT22;702;49.466;11.086;2023-10-19T13:31:10;16.20;80.30
1415;DHT22;702;49.466;11.086;2023-10-19T13:33:39;16.10;80.60
1415;DHT22;702;49.466;11.086;2023-10-19T13:36:08;16.00;80.80
1415;DHT22;702;49.466;11.086;2023-10-19T13:38:36;15.90;81.10
1415;DHT22;702;49.466;11.086;2023-10-19T13:41:03;16.00;81.20
1415;DHT22;702;49.466;11.086;2023-10-19T13:43:33;16.10;81.30
1415;DHT22;702;49.466;11.086;2023-10-19T13:46:01;16.10;81.20
1415;DHT22;702;49.466;11.086;2023-10-19T13:48:30;16.10;81.40
1415;DHT22;702;49.466;11.086;2023-10-19T13:50:58;16.20;81.60
1415;DHT22;702;49.466;11.086;2023-10-19T13:53:32;16.30;82.00
1415;DHT22;702;49.466;11.086;2023-10-19T13:56:00;16.10;82.70
1415;DHT22;702;49.466;11.086;2023-10-19T13:58:27;16.20;83.10
1415;DHT22;702;49.466;11.086;2023-10-19T14:00:54;16.20;83.30
1415;DHT22;702;49.466;11.086;2023-10-19T14:03:21;16.10;83.60
1415;DHT22;702;49.466;11.086;2023-10-19T14:05:49;16.00;83.90
1415;DHT22;702;49.466;11.086;2023-10-19T14:08:18;16.10;84.30
1415;DHT22;702;49.466;11.086;2023-10-19T14:10:48;16.20;84.60
1415;DHT22;702;49.466;11.086;2023-10-19T14:13:15;16.30;84.30
1415;DHT22;702;49.466;11.086;2023-10-19T14:15:42;16.10;84.50
1415;DHT22;702;49.466;11.086;2023-10-19T14:18:10;16.00;85.00
1415;DHT22;702;49.466;11.086;2023-10-19T14:20:37;16.20;85.10
1415;DHT22;702;49.466;11.086;2023-10-19T14:23:06;16.00;85.10
1415;DHT22;702;49.466;11.086;2023-10-19T14:25:36;16.00;84.80
1415;DHT22;702;49.466;11.086;2023-10-19T14:28:06;15.90;85.00
1415;DHT22;702;49.466;11.086;2023-10-19T14:30:33;15.70;85.10
1415;DHT22;702;49.466;11.086;2023-10-19T14:33:01;15.80;85.70
1415;DHT22;702;49.466;11.086;2023-10-19T14:35:30;15.90;86.00
1415;DHT22;702;49.466;11.086;2023-10-19T14:37:57;15.90;86.00
1415;DHT22;702;49.466;11.086;2023-10-19T14:40:27;16.00;86.40
1415;DHT22;702;49.466;11.086;2023-10-19T14:42:55;15.90;86.40
1415;DHT22;702;49.466;11.086;2023-10-19T14:45:26;15.90;86.70
1415;DHT22;702;49.466;11.086;2023-10-19T14:47:56;16.00;87.10
1415;DHT22;702;49.466;11.086;2023-10-19T14:50:25;15.90;87.00
1415;DHT22;702;49.466;11.086;2023-10-19T14:52:53;15.80;87.50
1415;DHT22;702;49.466;11.086;2023-10-19T14:55:22;15.50;88.00
1415;DHT22;702;49.466;11.086;2023-10-19T14:57:51;15.50;88.30
1415;DHT22;702;49.466;11.086;2023-10-19T15:00:20;15.40;88.50
1415;DHT22;702;49.466;11.086;2023-10-19T15:02:54;15.30;88.80
1415;DHT22;702;49.466;11.086;2023-10-19T15:05:23;15.20;89.40
1415;DHT22;702;49.466;11.086;2023-10-19T15:07:51;15.20;89.90
1415;DHT22;702;49.466;11.086;2023-10-19T15:10:22;15.10;90.20
1415;DHT22;702;49.466;11.086;2023-10-19T15:12:51;15.00;90.30
1415;DHT22;702;49.466;11.086;2023-10-19T15:15:19;14.90;90.60
1415;DHT22;702;49.466;11.086;2023-10-19T15:17:49;14.80;90.90
1415;DHT22;702;49.466;11.086;2023-10-19T15:20:20;14.70;91.30
1415;DHT22;702;49.466;11.086;2023-10-19T15:22:48;14.70;92.20
1415;DHT22;702;49.466;11.086;2023-10-19T15:25:16;14.60;92.50
1415;DHT22;702;49.466;11.086;2023-10-19T15:27:45;14.60;93.10
1415;DHT22;702;49.466;11.086;2023-10-19T15:30:14;14.60;93.20
1415;DHT22;702;49.466;11.086;2023-10-19T15:32:44;14.60;93.70
1415;DHT22;702;49.466;11.086;2023-10-19T15:35:12;14.50;93.70
1415;DHT22;702;49.466;11.086;2023-10-19T15:37:45;14.40;94.20
1415;DHT22;702;49.466;11.086;2023-10-19T15:40:13;14.40;94.00
1415;DHT22;702;49.466;11.086;2023-10-19T15:42:42;14.30;94.50
1415;DHT22;702;49.466;11.086;2023-10-19T15:45:09;14.30;94.40
1415;DHT22;702;49.466;11.086;2023-10-19T15:47:38;14.30;94.40
1415;DHT22;702;49.466;11.086;2023-10-19T15:50:07;14.40;94.00
1415;DHT22;702;49.466;11.086;2023-10-19T15:52:35;14.30;94.10
1415;DHT22;702;49.466;11.086;2023-10-19T15:55:10;14.20;94.50
1415;DHT22;702;49.466;11.086;2023-10-19T15:57:38;14.20;94.80
1415;DHT22;702;49.466;11.086;2023-10-19T16:00:08;14.10;94.80
1415;DHT22;702;49.466;11.086;2023-10-19T16:02:39;14.10;95.00
1415;DHT22;702;49.466;11.086;2023-10-19T16:05:07;13.90;95.80
1415;DHT22;702;49.466;11.086;2023-10-19T16:07:35;13.90;96.50
1415;DHT22;702;49.466;11.086;2023-10-19T16:10:03;13.90;96.50
1415;DHT22;702;49.466;11.086;2023-10-19T16:12:32;13.90;96.40
1415;DHT22;702;49.466;11.086;2023-10-19T16:14:59;13.80;96.60
1415;DHT22;702;49.466;11.086;2023-10-19T16:17:27;13.80;96.90
1415;DHT22;702;49.466;11.086;2023-10-19T16:19:54;13.80;96.80
1415;DHT22;702;49.466;11.086;2023-10-19T16:22:21;13.80;96.80
1415;DHT22;702;49.466;11.086;2023-10-19T16:24:48;13.80;97.40
1415;DHT22;702;49.466;11.086;2023-10-19T16:27:16;13.80;98.10